Muleshoe, Texas
Current Conditions -  °F | °C
As of 6:35 AM on Tuesday 27 Jan 2015 (Local Time) from KCVN Reporting Station
Clear Clear  
Wind Chill:   Ceiling: Unl
Heat Index:   Visibility: NA
Dew Point: -2°   Wind: 5mph
Humidity: 70%   Direction: 330°NNW
Pressure: 30.24"   Gusts: NA
Location:  34.23°N, 102.72°W
Report Text: KCVN 271235Z AUTO 33004KT CLR 03/M02 A3024 RMK AO1
Loading
Personal Weather Stations






























Interactive Weather Map New forecast layout! Learn more

10-Day Weather Forecast

Advertisements
Track Severe Weather on mobile